UAE49U ENGM-OMDB
Flight info
| Callsign | UAE49U |
|---|---|
| Flight time | N/A |
| Altitude | 31000 |
| Route | OKSAT L996 GETPA/N0483F350 L727 NEGIL DCT RUMAR DCT EVGUR DCT KENIN DCT ARGES/N0478F370 DCT ARTAT UP975 ERGUN UL124 EVSAS UM688 RATVO M688 ULDUR/N0486F390 M688 SIDAD P975 SESRU M677 VUTEB |
| Aircraft | B77W/H-SDE1E2E3FGHIJ2J3J4J5M1RWXY/LB1D1 |
Departure
| Time | 2026-05-07 13:00 |
|---|---|
| Airport | Oslo-Gardermoen International Airport (ENGM) |
Arrival
| Time | N/A |
|---|---|
| Airport | Dubai International Airport (OMDB) |
| Time | Latitude | Longitude | Altitude | Speed | Heading |
|---|---|---|---|---|---|
| 2026-05-07 12:15 | 60.19374 | 11.10932 | 690 ft | 0 kts | 196° |
| 2026-05-07 12:48 | 60.19393 | 11.10943 | 687 ft | 4 kts | 196° |
| 2026-05-07 12:48 | 60.19419 | 11.10958 | 681 ft | 4 kts | 196° |
| 2026-05-07 12:49 | 60.19440 | 11.10971 | 680 ft | 4 kts | 185° |
| 2026-05-07 12:49 | 60.19458 | 11.10957 | 680 ft | 4 kts | 114° |
| 2026-05-07 12:49 | 60.19459 | 11.10954 | 680 ft | 4 kts | 106° |
| 2026-05-07 12:49 | 60.19452 | 11.11002 | 680 ft | 2 kts | 106° |
| 2026-05-07 12:50 | 60.19452 | 11.11003 | 680 ft | 1 kts | 106° |
| 2026-05-07 12:55 | 60.19450 | 11.11014 | 681 ft | 0 kts | 107° |
| 2026-05-07 12:55 | 60.19444 | 11.11057 | 685 ft | 11 kts | 105° |
| 2026-05-07 12:55 | 60.19432 | 11.11143 | 682 ft | 0 kts | 105° |
| 2026-05-07 12:56 | 60.19406 | 11.11237 | 680 ft | 14 kts | 135° |
| 2026-05-07 12:56 | 60.19410 | 11.11393 | 680 ft | 16 kts | 69° |
| 2026-05-07 12:56 | 60.19525 | 11.11516 | 682 ft | 24 kts | 16° |
| 2026-05-07 12:56 | 60.19718 | 11.11609 | 684 ft | 33 kts | 17° |
| 2026-05-07 12:57 | 60.19834 | 11.11685 | 684 ft | 1 kts | 18° |
| 2026-05-07 12:57 | 60.19867 | 11.11707 | 685 ft | 13 kts | 18° |
| 2026-05-07 12:57 | 60.20015 | 11.11794 | 682 ft | 26 kts | 18° |
| 2026-05-07 12:57 | 60.20053 | 11.12062 | 686 ft | 21 kts | 102° |
| 2026-05-07 12:58 | 60.19950 | 11.12167 | 685 ft | 13 kts | 185° |
| 2026-05-07 12:58 | 60.19940 | 11.12169 | 687 ft | 0 kts | 173° |
| 2026-05-07 12:58 | 60.19937 | 11.12167 | 687 ft | 2 kts | 187° |
| 2026-05-07 12:58 | 60.19885 | 11.12118 | 686 ft | 12 kts | 201° |
| 2026-05-07 12:59 | 60.19824 | 11.12081 | 684 ft | 38 kts | 196° |
| 2026-05-07 12:59 | 60.19204 | 11.11723 | 685 ft | 148 kts | 196° |
| 2026-05-07 12:59 | 60.17909 | 11.10961 | 1048 ft | 218 kts | 197° |
| 2026-05-07 12:59 | 60.16428 | 11.10082 | 1217 ft | 289 kts | 197° |
| 2026-05-07 13:00 | 60.14568 | 11.08957 | 2388 ft | 311 kts | 197° |
| 2026-05-07 13:00 | 60.12572 | 11.07715 | 4037 ft | 282 kts | 197° |
| 2026-05-07 13:00 | 60.10796 | 11.06781 | 4673 ft | 248 kts | 197° |
| 2026-05-07 13:00 | 60.09190 | 11.05799 | 5227 ft | 240 kts | 198° |
| 2026-05-07 13:01 | 60.07525 | 11.04794 | 5868 ft | 257 kts | 198° |
| 2026-05-07 13:01 | 60.05783 | 11.03754 | 6648 ft | 264 kts | 198° |